sensor_id;sensor_type;location;lat;lon;timestamp;P1;durP1;ratioP1;P2;durP2;ratioP2
45848;SDS011;31567;54.600;9.842;2024-01-06T00:00:28;2.25;;;1.60;;
45848;SDS011;31567;54.600;9.842;2024-01-06T00:04:08;5.18;;;1.80;;
45848;SDS011;31567;54.600;9.842;2024-01-06T00:07:47;2.47;;;1.52;;
45848;SDS011;31567;54.600;9.842;2024-01-06T00:11:27;7.07;;;1.63;;
45848;SDS011;31567;54.600;9.842;2024-01-06T00:15:07;6.57;;;1.60;;
45848;SDS011;31567;54.600;9.842;2024-01-06T00:18:46;3.58;;;1.48;;
45848;SDS011;31567;54.600;9.842;2024-01-06T00:22:26;4.78;;;1.58;;
45848;SDS011;31567;54.600;9.842;2024-01-06T00:26:06;3.72;;;1.27;;
45848;SDS011;31567;54.600;9.842;2024-01-06T00:29:46;3.60;;;1.60;;
45848;SDS011;31567;54.600;9.842;2024-01-06T00:33:26;7.25;;;2.65;;
45848;SDS011;31567;54.600;9.842;2024-01-06T00:37:06;2.60;;;1.77;;
45848;SDS011;31567;54.600;9.842;2024-01-06T00:40:45;5.43;;;2.25;;
45848;SDS011;31567;54.600;9.842;2024-01-06T00:44:25;5.10;;;1.98;;
45848;SDS011;31567;54.600;9.842;2024-01-06T00:48:04;5.05;;;2.30;;
45848;SDS011;31567;54.600;9.842;2024-01-06T00:51:44;4.50;;;1.60;;
45848;SDS011;31567;54.600;9.842;2024-01-06T00:55:24;3.85;;;2.05;;
45848;SDS011;31567;54.600;9.842;2024-01-06T00:59:04;8.82;;;2.05;;
45848;SDS011;31567;54.600;9.842;2024-01-06T01:02:43;5.47;;;1.80;;
45848;SDS011;31567;54.600;9.842;2024-01-06T01:06:23;5.05;;;1.65;;
45848;SDS011;31567;54.600;9.842;2024-01-06T01:10:03;3.75;;;1.80;;
45848;SDS011;31567;54.600;9.842;2024-01-06T01:13:43;6.82;;;2.35;;
45848;SDS011;31567;54.600;9.842;2024-01-06T01:17:23;5.47;;;1.80;;
45848;SDS011;31567;54.600;9.842;2024-01-06T01:21:02;3.08;;;1.42;;
45848;SDS011;31567;54.600;9.842;2024-01-06T01:24:42;4.38;;;1.88;;
45848;SDS011;31567;54.600;9.842;2024-01-06T01:28:22;5.38;;;1.67;;
45848;SDS011;31567;54.600;9.842;2024-01-06T01:32:01;4.20;;;1.67;;
45848;SDS011;31567;54.600;9.842;2024-01-06T01:35:41;3.90;;;2.00;;
45848;SDS011;31567;54.600;9.842;2024-01-06T01:39:20;4.18;;;1.52;;
45848;SDS011;31567;54.600;9.842;2024-01-06T01:43:00;2.95;;;1.73;;
45848;SDS011;31567;54.600;9.842;2024-01-06T01:46:39;4.97;;;1.90;;
45848;SDS011;31567;54.600;9.842;2024-01-06T01:50:19;3.33;;;1.75;;
45848;SDS011;31567;54.600;9.842;2024-01-06T01:54:01;3.75;;;1.67;;
45848;SDS011;31567;54.600;9.842;2024-01-06T01:57:42;3.33;;;1.27;;
45848;SDS011;31567;54.600;9.842;2024-01-06T02:01:22;4.38;;;1.23;;
45848;SDS011;31567;54.600;9.842;2024-01-06T02:05:01;3.63;;;1.70;;
45848;SDS011;31567;54.600;9.842;2024-01-06T02:08:41;3.65;;;1.67;;
45848;SDS011;31567;54.600;9.842;2024-01-06T02:12:20;3.00;;;1.40;;
45848;SDS011;31567;54.600;9.842;2024-01-06T02:16:00;4.68;;;1.50;;
45848;SDS011;31567;54.600;9.842;2024-01-06T02:19:41;3.25;;;1.63;;
45848;SDS011;31567;54.600;9.842;2024-01-06T02:23:21;6.22;;;1.63;;
45848;SDS011;31567;54.600;9.842;2024-01-06T02:27:00;4.50;;;1.55;;
45848;SDS011;31567;54.600;9.842;2024-01-06T02:30:40;5.57;;;1.30;;
45848;SDS011;31567;54.600;9.842;2024-01-06T02:34:19;3.90;;;1.38;;
45848;SDS011;31567;54.600;9.842;2024-01-06T02:37:59;3.30;;;1.50;;
45848;SDS011;31567;54.600;9.842;2024-01-06T02:41:38;2.85;;;1.30;;
45848;SDS011;31567;54.600;9.842;2024-01-06T02:45:18;3.25;;;1.85;;
45848;SDS011;31567;54.600;9.842;2024-01-06T02:48:57;4.95;;;1.42;;
45848;SDS011;31567;54.600;9.842;2024-01-06T02:52:37;3.85;;;1.42;;
45848;SDS011;31567;54.600;9.842;2024-01-06T02:56:16;4.75;;;1.50;;
45848;SDS011;31567;54.600;9.842;2024-01-06T02:59:56;5.03;;;1.58;;
45848;SDS011;31567;54.600;9.842;2024-01-06T03:03:36;2.38;;;1.40;;
45848;SDS011;31567;54.600;9.842;2024-01-06T03:07:15;2.17;;;1.20;;
45848;SDS011;31567;54.600;9.842;2024-01-06T03:10:55;2.05;;;1.33;;
45848;SDS011;31567;54.600;9.842;2024-01-06T03:14:35;4.97;;;1.67;;
45848;SDS011;31567;54.600;9.842;2024-01-06T03:18:14;1.55;;;1.40;;
45848;SDS011;31567;54.600;9.842;2024-01-06T03:21:54;2.45;;;1.20;;
45848;SDS011;31567;54.600;9.842;2024-01-06T03:25:33;4.53;;;1.30;;
45848;SDS011;31567;54.600;9.842;2024-01-06T03:29:13;3.72;;;0.95;;
45848;SDS011;31567;54.600;9.842;2024-01-06T03:32:52;4.28;;;1.17;;
45848;SDS011;31567;54.600;9.842;2024-01-06T03:36:32;6.55;;;1.27;;
45848;SDS011;31567;54.600;9.842;2024-01-06T03:40:12;4.15;;;1.25;;
45848;SDS011;31567;54.600;9.842;2024-01-06T03:43:51;2.75;;;1.30;;
45848;SDS011;31567;54.600;9.842;2024-01-06T03:47:31;2.08;;;1.10;;
45848;SDS011;31567;54.600;9.842;2024-01-06T03:51:11;3.05;;;1.13;;
45848;SDS011;31567;54.600;9.842;2024-01-06T03:54:51;1.92;;;0.98;;
45848;SDS011;31567;54.600;9.842;2024-01-06T03:58:31;2.97;;;0.90;;
45848;SDS011;31567;54.600;9.842;2024-01-06T04:02:10;4.55;;;1.20;;
45848;SDS011;31567;54.600;9.842;2024-01-06T04:05:50;6.93;;;1.10;;
45848;SDS011;31567;54.600;9.842;2024-01-06T04:09:30;3.35;;;1.00;;
45848;SDS011;31567;54.600;9.842;2024-01-06T04:13:12;2.65;;;1.10;;
45848;SDS011;31567;54.600;9.842;2024-01-06T04:16:52;5.25;;;2.72;;
45848;SDS011;31567;54.600;9.842;2024-01-06T04:20:32;4.07;;;1.13;;
45848;SDS011;31567;54.600;9.842;2024-01-06T04:24:12;5.43;;;1.35;;
45848;SDS011;31567;54.600;9.842;2024-01-06T04:27:51;3.97;;;1.02;;
45848;SDS011;31567;54.600;9.842;2024-01-06T04:31:31;1.83;;;0.90;;
45848;SDS011;31567;54.600;9.842;2024-01-06T04:35:10;2.85;;;0.90;;
45848;SDS011;31567;54.600;9.842;2024-01-06T04:38:50;7.03;;;1.00;;
45848;SDS011;31567;54.600;9.842;2024-01-06T04:42:29;5.97;;;1.00;;
45848;SDS011;31567;54.600;9.842;2024-01-06T04:46:09;7.53;;;1.20;;
45848;SDS011;31567;54.600;9.842;2024-01-06T04:49:48;4.28;;;1.10;;
45848;SDS011;31567;54.600;9.842;2024-01-06T04:53:28;3.33;;;1.00;;
45848;SDS011;31567;54.600;9.842;2024-01-06T04:57:07;3.85;;;0.63;;
45848;SDS011;31567;54.600;9.842;2024-01-06T05:00:47;2.83;;;0.90;;
45848;SDS011;31567;54.600;9.842;2024-01-06T05:04:27;5.95;;;1.00;;
45848;SDS011;31567;54.600;9.842;2024-01-06T05:08:07;5.10;;;1.10;;
45848;SDS011;31567;54.600;9.842;2024-01-06T05:11:47;2.95;;;1.00;;
45848;SDS011;31567;54.600;9.842;2024-01-06T05:15:26;3.00;;;1.10;;
45848;SDS011;31567;54.600;9.842;2024-01-06T05:19:06;2.28;;;0.80;;
45848;SDS011;31567;54.600;9.842;2024-01-06T05:22:45;2.00;;;0.82;;
45848;SDS011;31567;54.600;9.842;2024-01-06T05:26:25;3.30;;;1.05;;
45848;SDS011;31567;54.600;9.842;2024-01-06T05:30:05;3.90;;;0.95;;
45848;SDS011;31567;54.600;9.842;2024-01-06T05:33:45;3.28;;;0.98;;
45848;SDS011;31567;54.600;9.842;2024-01-06T05:37:24;2.45;;;1.20;;
45848;SDS011;31567;54.600;9.842;2024-01-06T05:41:04;3.70;;;0.95;;
45848;SDS011;31567;54.600;9.842;2024-01-06T05:44:43;4.80;;;1.00;;
45848;SDS011;31567;54.600;9.842;2024-01-06T05:48:23;3.40;;;0.85;;
45848;SDS011;31567;54.600;9.842;2024-01-06T05:52:03;2.67;;;0.70;;
45848;SDS011;31567;54.600;9.842;2024-01-06T05:55:42;2.53;;;0.60;;
45848;SDS011;31567;54.600;9.842;2024-01-06T05:59:22;2.63;;;0.70;;
45848;SDS011;31567;54.600;9.842;2024-01-06T06:03:01;1.70;;;0.55;;
45848;SDS011;31567;54.600;9.842;2024-01-06T06:06:41;3.28;;;0.88;;
45848;SDS011;31567;54.600;9.842;2024-01-06T06:10:21;2.83;;;0.50;;
45848;SDS011;31567;54.600;9.842;2024-01-06T06:14:00;6.00;;;1.00;;
45848;SDS011;31567;54.600;9.842;2024-01-06T06:17:41;3.03;;;0.93;;
45848;SDS011;31567;54.600;9.842;2024-01-06T06:21:21;2.58;;;0.80;;
45848;SDS011;31567;54.600;9.842;2024-01-06T06:25:01;2.80;;;0.88;;
45848;SDS011;31567;54.600;9.842;2024-01-06T06:28:40;2.40;;;0.77;;
45848;SDS011;31567;54.600;9.842;2024-01-06T06:32:20;2.00;;;0.70;;
45848;SDS011;31567;54.600;9.842;2024-01-06T06:35:59;4.15;;;0.90;;
45848;SDS011;31567;54.600;9.842;2024-01-06T06:39:40;3.95;;;1.40;;
45848;SDS011;31567;54.600;9.842;2024-01-06T06:43:21;3.03;;;0.88;;
45848;SDS011;31567;54.600;9.842;2024-01-06T06:47:00;4.18;;;0.93;;
45848;SDS011;31567;54.600;9.842;2024-01-06T06:50:40;4.07;;;0.75;;
45848;SDS011;31567;54.600;9.842;2024-01-06T06:54:20;4.60;;;0.88;;
45848;SDS011;31567;54.600;9.842;2024-01-06T06:58:00;4.80;;;1.05;;
45848;SDS011;31567;54.600;9.842;2024-01-06T07:01:39;2.83;;;0.68;;
45848;SDS011;31567;54.600;9.842;2024-01-06T07:05:19;4.43;;;0.85;;
45848;SDS011;31567;54.600;9.842;2024-01-06T07:08:58;3.28;;;1.25;;
45848;SDS011;31567;54.600;9.842;2024-01-06T07:12:38;3.30;;;0.90;;
45848;SDS011;31567;54.600;9.842;2024-01-06T07:16:18;4.38;;;1.40;;
45848;SDS011;31567;54.600;9.842;2024-01-06T07:19:58;4.47;;;1.05;;
45848;SDS011;31567;54.600;9.842;2024-01-06T07:23:37;6.25;;;1.58;;
45848;SDS011;31567;54.600;9.842;2024-01-06T07:27:17;5.40;;;2.17;;
45848;SDS011;31567;54.600;9.842;2024-01-06T07:30:56;8.07;;;2.55;;
45848;SDS011;31567;54.600;9.842;2024-01-06T07:34:36;5.28;;;2.40;;
45848;SDS011;31567;54.600;9.842;2024-01-06T07:38:15;5.88;;;2.25;;
45848;SDS011;31567;54.600;9.842;2024-01-06T07:41:55;5.05;;;2.53;;
45848;SDS011;31567;54.600;9.842;2024-01-06T07:45:34;5.10;;;2.08;;
45848;SDS011;31567;54.600;9.842;2024-01-06T07:49:14;4.88;;;2.50;;
45848;SDS011;31567;54.600;9.842;2024-01-06T07:52:54;4.97;;;2.40;;
45848;SDS011;31567;54.600;9.842;2024-01-06T07:56:34;4.35;;;2.00;;
45848;SDS011;31567;54.600;9.842;2024-01-06T08:00:14;3.80;;;2.35;;
45848;SDS011;31567;54.600;9.842;2024-01-06T08:03:54;5.10;;;1.95;;
45848;SDS011;31567;54.600;9.842;2024-01-06T08:07:33;3.35;;;2.15;;
45848;SDS011;31567;54.600;9.842;2024-01-06T08:11:13;4.75;;;2.30;;
45848;SDS011;31567;54.600;9.842;2024-01-06T08:14:52;5.15;;;2.20;;
45848;SDS011;31567;54.600;9.842;2024-01-06T08:18:32;5.68;;;1.92;;
45848;SDS011;31567;54.600;9.842;2024-01-06T08:22:12;3.58;;;1.90;;
45848;SDS011;31567;54.600;9.842;2024-01-06T08:25:52;5.55;;;1.88;;
45848;SDS011;31567;54.600;9.842;2024-01-06T08:29:31;3.05;;;1.98;;
45848;SDS011;31567;54.600;9.842;2024-01-06T08:33:11;4.47;;;1.95;;
45848;SDS011;31567;54.600;9.842;2024-01-06T08:36:50;4.13;;;2.10;;
45848;SDS011;31567;54.600;9.842;2024-01-06T08:40:30;5.93;;;2.25;;
45848;SDS011;31567;54.600;9.842;2024-01-06T08:44:09;3.78;;;2.08;;
45848;SDS011;31567;54.600;9.842;2024-01-06T08:47:49;5.10;;;2.40;;
45848;SDS011;31567;54.600;9.842;2024-01-06T08:51:28;4.38;;;2.58;;
45848;SDS011;31567;54.600;9.842;2024-01-06T08:55:09;6.53;;;2.40;;
45848;SDS011;31567;54.600;9.842;2024-01-06T08:58:49;5.18;;;2.30;;
45848;SDS011;31567;54.600;9.842;2024-01-06T09:02:29;6.03;;;2.53;;
45848;SDS011;31567;54.600;9.842;2024-01-06T09:06:08;3.55;;;2.28;;
45848;SDS011;31567;54.600;9.842;2024-01-06T09:09:48;4.88;;;2.75;;
45848;SDS011;31567;54.600;9.842;2024-01-06T09:13:27;6.10;;;2.50;;
45848;SDS011;31567;54.600;9.842;2024-01-06T09:17:07;4.20;;;2.40;;
45848;SDS011;31567;54.600;9.842;2024-01-06T09:20:46;4.22;;;2.30;;
45848;SDS011;31567;54.600;9.842;2024-01-06T09:24:29;4.78;;;2.58;;
45848;SDS011;31567;54.600;9.842;2024-01-06T09:28:09;3.80;;;1.95;;
45848;SDS011;31567;54.600;9.842;2024-01-06T09:31:49;6.30;;;2.30;;
45848;SDS011;31567;54.600;9.842;2024-01-06T09:35:29;7.55;;;3.13;;
45848;SDS011;31567;54.600;9.842;2024-01-06T09:39:08;5.72;;;2.17;;
45848;SDS011;31567;54.600;9.842;2024-01-06T09:42:48;4.82;;;2.83;;
45848;SDS011;31567;54.600;9.842;2024-01-06T09:46:28;4.20;;;2.25;;
45848;SDS011;31567;54.600;9.842;2024-01-06T09:50:08;7.40;;;2.58;;
45848;SDS011;31567;54.600;9.842;2024-01-06T09:53:49;6.10;;;2.38;;
45848;SDS011;31567;54.600;9.842;2024-01-06T09:57:35;5.95;;;2.40;;
45848;SDS011;31567;54.600;9.842;2024-01-06T10:01:15;8.27;;;2.20;;
45848;SDS011;31567;54.600;9.842;2024-01-06T10:04:57;4.13;;;2.10;;
45848;SDS011;31567;54.600;9.842;2024-01-06T10:08:37;2.83;;;2.13;;
45848;SDS011;31567;54.600;9.842;2024-01-06T10:12:22;5.47;;;3.30;;
45848;SDS011;31567;54.600;9.842;2024-01-06T10:16:04;7.47;;;2.70;;
45848;SDS011;31567;54.600;9.842;2024-01-06T10:19:46;6.57;;;2.50;;
45848;SDS011;31567;54.600;9.842;2024-01-06T10:23:29;9.70;;;2.78;;
45848;SDS011;31567;54.600;9.842;2024-01-06T10:27:10;6.55;;;2.58;;
45848;SDS011;31567;54.600;9.842;2024-01-06T10:30:53;4.45;;;2.97;;
45848;SDS011;31567;54.600;9.842;2024-01-06T10:34:34;7.25;;;2.70;;
45848;SDS011;31567;54.600;9.842;2024-01-06T10:38:15;8.65;;;3.05;;
45848;SDS011;31567;54.600;9.842;2024-01-06T10:41:56;6.25;;;3.10;;
45848;SDS011;31567;54.600;9.842;2024-01-06T10:45:36;9.73;;;2.88;;
45848;SDS011;31567;54.600;9.842;2024-01-06T10:49:17;7.10;;;2.33;;
45848;SDS011;31567;54.600;9.842;2024-01-06T10:53:00;5.80;;;2.17;;
45848;SDS011;31567;54.600;9.842;2024-01-06T10:56:42;5.57;;;1.88;;
45848;SDS011;31567;54.600;9.842;2024-01-06T11:00:22;4.13;;;1.92;;
45848;SDS011;31567;54.600;9.842;2024-01-06T11:04:02;8.10;;;1.95;;
45848;SDS011;31567;54.600;9.842;2024-01-06T11:07:43;5.47;;;2.20;;
45848;SDS011;31567;54.600;9.842;2024-01-06T11:11:26;4.53;;;2.10;;
45848;SDS011;31567;54.600;9.842;2024-01-06T11:15:06;5.68;;;2.30;;
45848;SDS011;31567;54.600;9.842;2024-01-06T11:18:45;4.63;;;2.33;;
45848;SDS011;31567;54.600;9.842;2024-01-06T11:22:30;8.70;;;2.47;;
45848;SDS011;31567;54.600;9.842;2024-01-06T11:26:15;6.25;;;1.98;;
45848;SDS011;31567;54.600;9.842;2024-01-06T11:29:55;2.88;;;2.03;;
45848;SDS011;31567;54.600;9.842;2024-01-06T11:33:42;4.40;;;1.83;;
45848;SDS011;31567;54.600;9.842;2024-01-06T11:41:03;4.28;;;1.80;;
45848;SDS011;31567;54.600;9.842;2024-01-06T11:44:43;4.72;;;1.80;;
45848;SDS011;31567;54.600;9.842;2024-01-06T11:48:26;2.10;;;1.30;;
45848;SDS011;31567;54.600;9.842;2024-01-06T11:52:08;6.22;;;2.10;;
45848;SDS011;31567;54.600;9.842;2024-01-06T11:55:48;4.40;;;1.77;;
45848;SDS011;31567;54.600;9.842;2024-01-06T11:59:28;7.82;;;1.77;;
45848;SDS011;31567;54.600;9.842;2024-01-06T12:03:07;4.75;;;1.73;;
45848;SDS011;31567;54.600;9.842;2024-01-06T12:06:47;4.88;;;1.70;;
45848;SDS011;31567;54.600;9.842;2024-01-06T12:10:28;6.55;;;1.80;;
45848;SDS011;31567;54.600;9.842;2024-01-06T12:14:08;7.47;;;2.10;;
45848;SDS011;31567;54.600;9.842;2024-01-06T12:17:47;3.67;;;1.90;;
45848;SDS011;31567;54.600;9.842;2024-01-06T12:21:27;4.57;;;2.90;;
45848;SDS011;31567;54.600;9.842;2024-01-06T12:25:07;4.10;;;1.80;;
45848;SDS011;31567;54.600;9.842;2024-01-06T12:28:48;4.05;;;1.58;;
45848;SDS011;31567;54.600;9.842;2024-01-06T12:32:29;4.45;;;2.05;;
45848;SDS011;31567;54.600;9.842;2024-01-06T12:36:08;4.93;;;1.92;;
45848;SDS011;31567;54.600;9.842;2024-01-06T12:39:50;9.75;;;3.17;;
45848;SDS011;31567;54.600;9.842;2024-01-06T12:43:30;7.07;;;2.22;;
45848;SDS011;31567;54.600;9.842;2024-01-06T12:47:10;5.63;;;1.85;;
45848;SDS011;31567;54.600;9.842;2024-01-06T12:50:51;8.48;;;2.22;;
45848;SDS011;31567;54.600;9.842;2024-01-06T12:54:30;5.25;;;2.63;;
45848;SDS011;31567;54.600;9.842;2024-01-06T12:58:10;4.88;;;2.13;;
45848;SDS011;31567;54.600;9.842;2024-01-06T13:01:50;4.38;;;1.80;;
45848;SDS011;31567;54.600;9.842;2024-01-06T13:05:29;5.43;;;2.05;;
45848;SDS011;31567;54.600;9.842;2024-01-06T13:09:09;4.43;;;1.70;;
45848;SDS011;31567;54.600;9.842;2024-01-06T13:12:55;5.13;;;2.00;;
45848;SDS011;31567;54.600;9.842;2024-01-06T13:16:34;4.03;;;1.85;;
45848;SDS011;31567;54.600;9.842;2024-01-06T13:20:15;3.10;;;2.20;;
45848;SDS011;31567;54.600;9.842;2024-01-06T13:23:55;4.57;;;1.58;;
45848;SDS011;31567;54.600;9.842;2024-01-06T13:27:39;3.30;;;1.75;;
45848;SDS011;31567;54.600;9.842;2024-01-06T13:31:19;4.50;;;1.88;;
45848;SDS011;31567;54.600;9.842;2024-01-06T13:34:59;4.20;;;1.67;;
45848;SDS011;31567;54.600;9.842;2024-01-06T13:38:43;5.75;;;2.35;;
45848;SDS011;31567;54.600;9.842;2024-01-06T13:42:22;4.18;;;1.92;;
45848;SDS011;31567;54.600;9.842;2024-01-06T13:46:02;6.40;;;1.83;;
45848;SDS011;31567;54.600;9.842;2024-01-06T13:49:42;2.17;;;1.63;;
45848;SDS011;31567;54.600;9.842;2024-01-06T13:53:21;3.38;;;1.73;;
45848;SDS011;31567;54.600;9.842;2024-01-06T13:57:01;3.25;;;1.30;;
45848;SDS011;31567;54.600;9.842;2024-01-06T14:00:42;2.97;;;1.65;;
45848;SDS011;31567;54.600;9.842;2024-01-06T14:04:23;7.03;;;1.77;;
45848;SDS011;31567;54.600;9.842;2024-01-06T14:08:02;5.60;;;1.83;;
45848;SDS011;31567;54.600;9.842;2024-01-06T14:11:42;2.22;;;1.38;;
45848;SDS011;31567;54.600;9.842;2024-01-06T14:15:22;5.32;;;1.67;;
45848;SDS011;31567;54.600;9.842;2024-01-06T14:19:02;5.72;;;1.75;;
45848;SDS011;31567;54.600;9.842;2024-01-06T14:22:41;3.53;;;1.50;;
45848;SDS011;31567;54.600;9.842;2024-01-06T14:26:21;3.78;;;1.83;;
45848;SDS011;31567;54.600;9.842;2024-01-06T14:30:00;6.82;;;2.45;;
45848;SDS011;31567;54.600;9.842;2024-01-06T14:33:40;5.10;;;1.92;;
45848;SDS011;31567;54.600;9.842;2024-01-06T14:37:20;4.20;;;2.20;;
45848;SDS011;31567;54.600;9.842;2024-01-06T14:41:01;4.18;;;1.88;;
45848;SDS011;31567;54.600;9.842;2024-01-06T14:44:41;5.32;;;1.83;;
45848;SDS011;31567;54.600;9.842;2024-01-06T14:48:21;3.45;;;1.48;;
45848;SDS011;31567;54.600;9.842;2024-01-06T14:52:00;7.10;;;1.85;;
45848;SDS011;31567;54.600;9.842;2024-01-06T14:55:41;6.75;;;1.83;;
45848;SDS011;31567;54.600;9.842;2024-01-06T14:59:21;3.65;;;1.63;;
45848;SDS011;31567;54.600;9.842;2024-01-06T15:03:00;2.95;;;1.90;;
45848;SDS011;31567;54.600;9.842;2024-01-06T15:06:40;5.53;;;2.10;;
45848;SDS011;31567;54.600;9.842;2024-01-06T15:10:19;7.15;;;2.20;;
45848;SDS011;31567;54.600;9.842;2024-01-06T15:13:59;4.07;;;2.00;;
45848;SDS011;31567;54.600;9.842;2024-01-06T15:17:41;5.80;;;3.53;;
45848;SDS011;31567;54.600;9.842;2024-01-06T15:21:21;4.65;;;2.78;;
45848;SDS011;31567;54.600;9.842;2024-01-06T15:25:02;5.05;;;2.05;;
45848;SDS011;31567;54.600;9.842;2024-01-06T15:28:45;5.43;;;2.10;;
45848;SDS011;31567;54.600;9.842;2024-01-06T15:32:24;4.65;;;2.22;;
45848;SDS011;31567;54.600;9.842;2024-01-06T15:36:04;7.40;;;2.55;;
45848;SDS011;31567;54.600;9.842;2024-01-06T15:39:43;4.38;;;2.28;;
45848;SDS011;31567;54.600;9.842;2024-01-06T15:43:23;4.50;;;2.20;;
45848;SDS011;31567;54.600;9.842;2024-01-06T15:47:03;7.47;;;2.40;;
45848;SDS011;31567;54.600;9.842;2024-01-06T15:50:42;7.53;;;3.15;;
45848;SDS011;31567;54.600;9.842;2024-01-06T15:54:22;3.33;;;1.85;;
45848;SDS011;31567;54.600;9.842;2024-01-06T15:58:01;3.35;;;1.85;;
45848;SDS011;31567;54.600;9.842;2024-01-06T16:01:41;5.95;;;2.80;;
45848;SDS011;31567;54.600;9.842;2024-01-06T16:05:20;5.53;;;2.28;;
45848;SDS011;31567;54.600;9.842;2024-01-06T16:09:00;6.78;;;2.40;;
45848;SDS011;31567;54.600;9.842;2024-01-06T16:12:40;4.07;;;2.78;;
45848;SDS011;31567;54.600;9.842;2024-01-06T16:16:20;3.25;;;1.80;;
45848;SDS011;31567;54.600;9.842;2024-01-06T16:20:00;6.40;;;2.22;;
45848;SDS011;31567;54.600;9.842;2024-01-06T16:23:40;7.57;;;2.85;;
45848;SDS011;31567;54.600;9.842;2024-01-06T16:27:20;4.35;;;2.05;;
45848;SDS011;31567;54.600;9.842;2024-01-06T16:31:00;4.28;;;1.90;;
45848;SDS011;31567;54.600;9.842;2024-01-06T16:34:39;4.68;;;2.08;;
45848;SDS011;31567;54.600;9.842;2024-01-06T16:38:20;6.72;;;3.30;;
45848;SDS011;31567;54.600;9.842;2024-01-06T16:42:00;4.53;;;2.30;;
45848;SDS011;31567;54.600;9.842;2024-01-06T16:45:39;8.35;;;3.72;;
45848;SDS011;31567;54.600;9.842;2024-01-06T16:49:19;7.18;;;3.55;;
45848;SDS011;31567;54.600;9.842;2024-01-06T16:52:58;8.10;;;4.05;;
45848;SDS011;31567;54.600;9.842;2024-01-06T16:56:38;7.50;;;5.25;;
45848;SDS011;31567;54.600;9.842;2024-01-06T17:00:18;6.88;;;4.00;;
45848;SDS011;31567;54.600;9.842;2024-01-06T17:03:58;4.60;;;3.58;;
45848;SDS011;31567;54.600;9.842;2024-01-06T17:07:38;7.55;;;3.30;;
45848;SDS011;31567;54.600;9.842;2024-01-06T17:11:23;5.82;;;2.80;;
45848;SDS011;31567;54.600;9.842;2024-01-06T17:15:04;4.50;;;2.33;;
45848;SDS011;31567;54.600;9.842;2024-01-06T17:18:44;3.92;;;2.03;;
45848;SDS011;31567;54.600;9.842;2024-01-06T17:22:24;2.95;;;1.88;;
45848;SDS011;31567;54.600;9.842;2024-01-06T17:26:03;2.30;;;1.73;;
45848;SDS011;31567;54.600;9.842;2024-01-06T17:29:43;4.22;;;2.30;;
45848;SDS011;31567;54.600;9.842;2024-01-06T17:33:22;4.00;;;2.63;;
45848;SDS011;31567;54.600;9.842;2024-01-06T17:37:02;6.72;;;2.60;;
45848;SDS011;31567;54.600;9.842;2024-01-06T17:40:42;5.43;;;2.97;;
45848;SDS011;31567;54.600;9.842;2024-01-06T17:44:21;9.05;;;3.60;;
45848;SDS011;31567;54.600;9.842;2024-01-06T17:48:01;4.60;;;2.80;;
45848;SDS011;31567;54.600;9.842;2024-01-06T17:51:40;4.32;;;2.90;;
45848;SDS011;31567;54.600;9.842;2024-01-06T17:55:20;6.85;;;2.38;;
45848;SDS011;31567;54.600;9.842;2024-01-06T17:59:00;6.45;;;2.33;;
45848;SDS011;31567;54.600;9.842;2024-01-06T18:02:40;3.45;;;2.55;;
45848;SDS011;31567;54.600;9.842;2024-01-06T18:06:23;3.70;;;2.80;;
45848;SDS011;31567;54.600;9.842;2024-01-06T18:10:03;4.80;;;2.80;;
45848;SDS011;31567;54.600;9.842;2024-01-06T18:13:43;6.97;;;2.78;;
45848;SDS011;31567;54.600;9.842;2024-01-06T18:17:22;4.38;;;2.40;;
45848;SDS011;31567;54.600;9.842;2024-01-06T18:21:02;6.90;;;2.30;;
45848;SDS011;31567;54.600;9.842;2024-01-06T18:24:42;4.32;;;2.72;;
45848;SDS011;31567;54.600;9.842;2024-01-06T18:28:22;5.63;;;1.90;;
45848;SDS011;31567;54.600;9.842;2024-01-06T18:32:06;5.43;;;1.77;;
45848;SDS011;31567;54.600;9.842;2024-01-06T18:35:46;3.47;;;1.90;;
45848;SDS011;31567;54.600;9.842;2024-01-06T18:39:25;3.60;;;1.77;;
45848;SDS011;31567;54.600;9.842;2024-01-06T18:43:05;6.72;;;1.80;;
45848;SDS011;31567;54.600;9.842;2024-01-06T18:46:44;5.82;;;1.85;;
45848;SDS011;31567;54.600;9.842;2024-01-06T18:50:24;4.28;;;1.80;;
45848;SDS011;31567;54.600;9.842;2024-01-06T18:54:04;5.20;;;2.00;;
45848;SDS011;31567;54.600;9.842;2024-01-06T18:57:45;5.45;;;1.88;;
45848;SDS011;31567;54.600;9.842;2024-01-06T19:01:25;2.95;;;1.45;;
45848;SDS011;31567;54.600;9.842;2024-01-06T19:05:05;2.13;;;1.63;;
45848;SDS011;31567;54.600;9.842;2024-01-06T19:08:45;4.80;;;1.70;;
45848;SDS011;31567;54.600;9.842;2024-01-06T19:12:25;4.40;;;1.70;;
45848;SDS011;31567;54.600;9.842;2024-01-06T19:16:04;5.90;;;1.77;;
45848;SDS011;31567;54.600;9.842;2024-01-06T19:19:44;7.20;;;1.83;;
45848;SDS011;31567;54.600;9.842;2024-01-06T19:23:24;4.65;;;1.67;;
45848;SDS011;31567;54.600;9.842;2024-01-06T19:27:04;1.98;;;1.50;;
45848;SDS011;31567;54.600;9.842;2024-01-06T19:30:43;4.55;;;2.00;;
45848;SDS011;31567;54.600;9.842;2024-01-06T19:34:23;6.90;;;1.55;;
45848;SDS011;31567;54.600;9.842;2024-01-06T19:38:03;4.65;;;1.95;;
45848;SDS011;31567;54.600;9.842;2024-01-06T19:41:42;5.00;;;1.20;;
45848;SDS011;31567;54.600;9.842;2024-01-06T19:45:22;1.88;;;1.17;;
45848;SDS011;31567;54.600;9.842;2024-01-06T19:49:02;5.05;;;2.70;;
45848;SDS011;31567;54.600;9.842;2024-01-06T19:52:42;3.80;;;2.45;;
45848;SDS011;31567;54.600;9.842;2024-01-06T19:56:21;4.13;;;2.78;;
45848;SDS011;31567;54.600;9.842;2024-01-06T20:00:01;4.22;;;3.00;;
45848;SDS011;31567;54.600;9.842;2024-01-06T20:03:42;6.43;;;2.88;;
45848;SDS011;31567;54.600;9.842;2024-01-06T20:07:22;4.28;;;3.13;;
45848;SDS011;31567;54.600;9.842;2024-01-06T20:11:05;6.47;;;2.67;;
45848;SDS011;31567;54.600;9.842;2024-01-06T20:14:45;3.65;;;2.08;;
45848;SDS011;31567;54.600;9.842;2024-01-06T20:18:25;4.85;;;2.70;;
45848;SDS011;31567;54.600;9.842;2024-01-06T20:22:06;5.95;;;3.05;;
45848;SDS011;31567;54.600;9.842;2024-01-06T20:25:45;8.15;;;4.00;;
45848;SDS011;31567;54.600;9.842;2024-01-06T20:29:26;8.45;;;3.42;;
45848;SDS011;31567;54.600;9.842;2024-01-06T20:33:06;7.63;;;3.15;;
45848;SDS011;31567;54.600;9.842;2024-01-06T20:36:45;7.90;;;3.00;;
45848;SDS011;31567;54.600;9.842;2024-01-06T20:40:25;8.05;;;2.88;;
45848;SDS011;31567;54.600;9.842;2024-01-06T20:44:05;6.50;;;2.42;;
45848;SDS011;31567;54.600;9.842;2024-01-06T20:47:45;3.42;;;2.83;;
45848;SDS011;31567;54.600;9.842;2024-01-06T20:51:24;7.72;;;2.33;;
45848;SDS011;31567;54.600;9.842;2024-01-06T20:55:04;8.45;;;3.30;;
45848;SDS011;31567;54.600;9.842;2024-01-06T20:58:44;5.88;;;3.30;;
45848;SDS011;31567;54.600;9.842;2024-01-06T21:02:23;7.90;;;3.50;;
45848;SDS011;31567;54.600;9.842;2024-01-06T21:06:03;4.18;;;2.03;;
45848;SDS011;31567;54.600;9.842;2024-01-06T21:09:43;4.97;;;1.85;;
45848;SDS011;31567;54.600;9.842;2024-01-06T21:13:22;2.55;;;1.85;;
45848;SDS011;31567;54.600;9.842;2024-01-06T21:17:02;3.58;;;1.30;;
45848;SDS011;31567;54.600;9.842;2024-01-06T21:20:42;3.95;;;1.20;;
45848;SDS011;31567;54.600;9.842;2024-01-06T21:24:21;4.80;;;2.05;;
45848;SDS011;31567;54.600;9.842;2024-01-06T21:28:03;5.00;;;1.58;;
45848;SDS011;31567;54.600;9.842;2024-01-06T21:31:44;5.28;;;2.00;;
45848;SDS011;31567;54.600;9.842;2024-01-06T21:35:24;3.83;;;2.08;;
45848;SDS011;31567;54.600;9.842;2024-01-06T21:39:04;5.57;;;2.00;;
45848;SDS011;31567;54.600;9.842;2024-01-06T21:42:44;3.58;;;2.35;;
45848;SDS011;31567;54.600;9.842;2024-01-06T21:46:23;5.47;;;2.80;;
45848;SDS011;31567;54.600;9.842;2024-01-06T21:50:03;5.18;;;2.97;;
45848;SDS011;31567;54.600;9.842;2024-01-06T21:53:43;6.43;;;2.88;;
45848;SDS011;31567;54.600;9.842;2024-01-06T21:57:23;6.05;;;3.08;;
45848;SDS011;31567;54.600;9.842;2024-01-06T22:01:03;5.45;;;2.90;;
45848;SDS011;31567;54.600;9.842;2024-01-06T22:04:42;9.10;;;2.88;;
45848;SDS011;31567;54.600;9.842;2024-01-06T22:08:22;7.35;;;3.25;;